»·PEaware :: N41585 KSEA-KPDX

N41585 :: KSEA-KPDX

FLIGHT INFORMATION

Flight Status: Arrived
Operator: Privately registered:
United States
More flights under this callsign
Pilot: Sonny B. (6473)
Aircraft: PIPER PA-28R-201 ARROW
(P28R)
More flights by this aircraft type
Origin: KSEA Seattle-Tacoma Intl
United States
Destination: KPDX Portland Intl
United States
More flights between these airports :: More routes between these airports
Route: SEA V495 BTG
File this flight plan on PilotEdge
Remarks:
Altitude:
(Current/Filed)
10,000ft
Speed:
(Current/Filed)
150kts
Departed: 12-Oct-17 06:37 PM
Arrived: 12-Oct-17 07:33 PM
Distance/Time
Traveled:
112nm/0:55
Distance/Time
To Go:
Arrived

Flight Plot

Page will automatically refresh every two minutes.

Flight plan parsing failed; only flown route is shown


Map Options




Map Legend


Flown Route
Filed Route
Departure Airport
Arrival Airport
Navaid (VOR, NDB)
Fix

Horizontal Profiles

Position Reports

Time Latitude Longitude Heading Altitude Ground
Speed
12-Oct-17 18:16 47.437604 -122.302481 269 435ft 0kts
12-Oct-17 18:17 47.437604 -122.302481 269 435ft 0kts
12-Oct-17 18:18 47.437604 -122.302481 269 435ft 0kts
12-Oct-17 18:19 47.437604 -122.302481 269 435ft 0kts
12-Oct-17 18:20 47.437604 -122.302481 269 435ft 0kts
12-Oct-17 18:21 47.437604 -122.302481 269 435ft 0kts
12-Oct-17 18:22 47.437604 -122.302481 269 435ft 0kts
12-Oct-17 18:24 47.437604 -122.302481 269 435ft 0kts
12-Oct-17 18:25 47.437604 -122.302481 269 435ft 0kts
12-Oct-17 18:26 47.437604 -122.302481 269 435ft 0kts
12-Oct-17 18:27 47.437604 -122.302481 269 435ft 0kts
12-Oct-17 18:28 47.437604 -122.302481 269 435ft 0kts
12-Oct-17 18:29 47.437604 -122.302481 269 435ft 0kts
12-Oct-17 18:30 47.437604 -122.302481 269 435ft 0kts
12-Oct-17 18:31 47.437604 -122.302481 269 435ft 0kts
12-Oct-17 18:32 47.437604 -122.302481 269 435ft 0kts
12-Oct-17 18:33 47.437604 -122.302481 269 435ft 0kts
12-Oct-17 18:34 47.437568 -122.304785 279 435ft 9kts
12-Oct-17 18:35 47.440359 -122.306362 359 435ft 14kts
12-Oct-17 18:36 47.444828 -122.306317 359 435ft 16kts
12-Oct-17 18:37 47.449346 -122.306265 359 435ft 16kts
12-Oct-17 18:38 47.453838 -122.306218 359 435ft 16kts
12-Oct-17 18:39 47.458316 -122.306175 0 435ft 16kts
12-Oct-17 18:40 47.459999 -122.306504 292 435ft 0kts
12-Oct-17 18:41 47.459999 -122.306504 292 435ft 0kts
12-Oct-17 18:42 47.457196 -122.307796 180 435ft 64kts
12-Oct-17 18:43 47.432594 -122.307393 179 1568ft 93kts
12-Oct-17 18:44 47.406731 -122.308045 180 2805ft 96kts
12-Oct-17 18:45 47.372819 -122.307920 180 3020ft 145kts
12-Oct-17 18:46 47.333638 -122.310545 186 3789ft 134kts
12-Oct-17 18:47 47.296374 -122.312459 195 4530ft 138kts
12-Oct-17 18:48 47.265528 -122.342214 215 5460ft 124kts
12-Oct-17 18:49 47.232770 -122.353795 183 6338ft 123kts
12-Oct-17 18:50 47.199751 -122.357439 184 7299ft 116kts
12-Oct-17 18:51 47.167880 -122.361629 183 8205ft 115kts
12-Oct-17 18:52 47.136514 -122.366108 183 9106ft 108kts
12-Oct-17 18:53 47.107393 -122.370050 186 9713ft 122kts
12-Oct-17 18:54 47.071672 -122.375880 186 9978ft 135kts
12-Oct-17 18:55 47.030612 -122.384560 186 9998ft 157kts
12-Oct-17 18:56 46.986287 -122.391251 185 9996ft 162kts
12-Oct-17 18:57 46.941467 -122.398006 185 9996ft 162kts
12-Oct-17 18:58 46.896491 -122.404771 185 9996ft 163kts
12-Oct-17 18:59 46.851339 -122.411533 185 9996ft 163kts
12-Oct-17 19:00 46.806119 -122.418281 185 9996ft 164kts
12-Oct-17 19:01 46.760764 -122.425030 185 9996ft 164kts
12-Oct-17 19:02 46.715527 -122.432001 186 9996ft 164kts
12-Oct-17 19:03 46.670343 -122.439318 186 9996ft 164kts
12-Oct-17 19:04 46.624980 -122.446669 186 9996ft 164kts
12-Oct-17 19:05 46.584799 -122.453161 186 9996ft 164kts
12-Oct-17 19:06 46.539861 -122.460395 186 9996ft 164kts
12-Oct-17 19:07 46.496267 -122.467394 186 9996ft 164kts
12-Oct-17 19:08 46.450854 -122.474674 186 9996ft 164kts
12-Oct-17 19:09 46.405860 -122.481860 186 9996ft 164kts
12-Oct-17 19:10 46.360591 -122.489165 186 9996ft 164kts
12-Oct-17 19:11 46.315370 -122.496979 186 9996ft 164kts
12-Oct-17 19:12 46.270161 -122.505225 187 9996ft 164kts
12-Oct-17 19:13 46.225003 -122.513634 187 9996ft 164kts
12-Oct-17 19:14 46.179765 -122.521847 186 9996ft 164kts
12-Oct-17 19:15 46.134472 -122.529606 186 9996ft 164kts
12-Oct-17 19:16 46.089420 -122.535691 184 9629ft 165kts
12-Oct-17 19:17 46.044697 -122.541027 187 9010ft 160kts
12-Oct-17 19:18 46.000286 -122.547142 185 8319ft 159kts
12-Oct-17 19:19 45.956394 -122.552077 183 7678ft 158kts
12-Oct-17 19:20 45.912949 -122.558803 186 6955ft 156kts
12-Oct-17 19:21 45.870082 -122.564255 183 6194ft 154kts
12-Oct-17 19:22 45.827578 -122.570201 185 5461ft 153kts
12-Oct-17 19:23 45.785570 -122.576428 186 5008ft 148kts
12-Oct-17 19:24 45.745170 -122.582727 186 5008ft 145kts
12-Oct-17 19:25 45.705379 -122.588911 186 5008ft 142kts
12-Oct-17 19:26 45.665105 -122.594622 186 4295ft 146kts
12-Oct-17 19:27 45.630567 -122.576613 117 3477ft 150kts
12-Oct-17 19:28 45.612811 -122.526214 116 3016ft 136kts
12-Oct-17 19:29 45.595447 -122.477353 117 3015ft 138kts
12-Oct-17 19:30 45.577975 -122.428322 116 2760ft 139kts
12-Oct-17 19:31 45.560545 -122.379375 116 2523ft 138kts
12-Oct-17 19:31 45.537520 -122.359283 205 2523ft 137kts
12-Oct-17 19:33 45.522879 -122.407065 287 2489ft 133kts
12-Oct-17 19:34 45.539037 -122.455041 303 1865ft 130kts
12-Oct-17 19:34 45.553523 -122.489372 301 1231ft 110kts
12-Oct-17 19:36 45.570548 -122.532710 296 653ft 104kts
12-Oct-17 19:37 45.582423 -122.564038 299 148ft 93kts
12-Oct-17 19:37 45.588489 -122.579695 297 26ft 34kts
12-Oct-17 19:38 45.588443 -122.582480 206 26ft 5kts
12-Oct-17 19:39 45.587523 -122.583554 126 26ft 0kts

Navigation Log

Ident Type
Flight plan parsing failed, navigation log unavailable